createdAt,value
2022-11-19T00:00:38.438Z,98805.28
2022-11-19T00:01:40.870Z,98799.09
2022-11-19T00:02:43.167Z,98808.80
2022-11-19T00:03:49.889Z,98797.24
2022-11-19T00:04:49.765Z,98796.27
2022-11-19T00:05:52.405Z,98797.94
2022-11-19T00:06:55.609Z,98794.42
2022-11-19T00:07:59.265Z,98791.75
2022-11-19T00:09:01.407Z,98795.27
2022-11-19T00:10:04.816Z,98793.45
2022-11-19T00:11:11.824Z,98790.77
2022-11-19T00:12:13.947Z,98791.61
2022-11-19T00:13:17.296Z,98782.73
2022-11-19T00:14:20.119Z,98786.25
2022-11-19T00:15:22.586Z,98783.58
2022-11-19T00:16:24.699Z,98778.22
2022-11-19T00:17:27.900Z,98775.54
2022-11-19T00:18:30.043Z,98769.34
2022-11-19T00:19:32.118Z,98766.67
2022-11-19T00:20:35.031Z,98772.86
2022-11-19T00:21:38.989Z,98766.67
2022-11-19T00:22:41.410Z,98766.53
2022-11-19T00:23:44.463Z,98765.69
2022-11-19T00:24:46.562Z,98763.98
2022-11-19T00:25:49.674Z,98760.34
2022-11-19T00:26:51.922Z,98760.34
2022-11-19T00:27:55.941Z,98760.34
2022-11-19T00:28:58.002Z,98763.02
2022-11-19T00:29:59.993Z,98765.69
2022-11-19T00:31:06.902Z,98762.00
2022-11-19T00:32:10.806Z,98754.98
2022-11-19T00:33:13.655Z,98752.30
2022-11-19T00:34:17.041Z,98746.94
2022-11-19T00:35:20.010Z,98743.25
2022-11-19T00:36:23.114Z,98741.58
2022-11-19T00:37:25.980Z,98736.23
2022-11-19T00:38:28.650Z,98737.90
2022-11-19T00:39:31.466Z,98740.72
2022-11-19T00:40:34.311Z,98724.64
2022-11-19T00:41:36.314Z,98728.19
2022-11-19T00:42:39.035Z,98725.52
2022-11-19T00:43:41.587Z,98723.67
2022-11-19T00:44:44.577Z,98709.44
2022-11-19T00:45:47.092Z,98715.77
2022-11-19T00:46:49.665Z,98703.22
2022-11-19T00:47:51.748Z,98705.06
2022-11-19T00:48:55.056Z,98705.06
2022-11-19T00:49:57.179Z,98698.84
2022-11-19T00:50:59.727Z,98691.67
2022-11-19T00:52:02.519Z,98694.34
2022-11-19T00:53:04.595Z,98692.50
2022-11-19T00:54:07.564Z,98687.14
2022-11-19T00:55:09.734Z,98687.14
2022-11-19T00:56:13.494Z,98688.02
2022-11-19T00:57:16.053Z,98683.48
2022-11-19T00:58:18.620Z,98681.64
2022-11-19T00:59:21.422Z,98682.66
2022-11-19T01:00:23.948Z,98676.29
2022-11-19T01:01:26.133Z,98678.13
2022-11-19T01:02:28.297Z,98691.53
2022-11-19T01:03:30.593Z,98680.81
2022-11-19T01:04:32.679Z,98680.81
2022-11-19T01:05:34.811Z,98684.33
2022-11-19T01:06:36.974Z,98685.19
2022-11-19T01:07:39.007Z,98680.67
2022-11-19T01:08:42.132Z,98678.97
2022-11-19T01:09:45.125Z,98676.15
2022-11-19T01:10:47.688Z,98675.31
2022-11-19T01:11:50.655Z,98684.19
2022-11-19T01:12:52.645Z,98680.67
2022-11-19T01:13:55.068Z,98677.99
2022-11-19T01:14:57.151Z,98678.97
2022-11-19T01:15:59.468Z,98671.80
2022-11-19T01:17:01.674Z,98668.11
2022-11-19T01:18:03.926Z,98676.15
2022-11-19T01:19:08.426Z,98662.89
2022-11-19T01:20:11.687Z,98660.95
2022-11-19T01:21:14.322Z,98662.75
2022-11-19T01:22:16.417Z,98659.24
2022-11-19T01:23:19.862Z,98653.88
2022-11-19T01:24:21.900Z,98655.73
2022-11-19T01:25:24.039Z,98662.75
2022-11-19T01:26:27.445Z,98655.59
2022-11-19T01:27:30.301Z,98657.39
2022-11-19T01:28:32.528Z,98656.42
2022-11-19T01:29:35.621Z,98658.27
2022-11-19T01:30:41.550Z,98658.27
2022-11-19T01:31:43.683Z,98657.39
2022-11-19T01:32:45.764Z,98654.72
2022-11-19T01:33:49.081Z,98659.24
2022-11-19T01:34:51.206Z,98655.59
2022-11-19T01:36:01.363Z,98654.72
2022-11-19T01:37:03.493Z,98648.38
2022-11-19T01:38:06.618Z,98652.04
2022-11-19T01:39:08.903Z,98654.72
2022-11-19T01:40:12.956Z,98645.84
2022-11-19T01:41:14.979Z,98640.49
2022-11-19T01:43:53.588Z,98636.84
2022-11-19T01:45:02.152Z,98627.09
2022-11-19T01:46:04.390Z,98640.49
2022-11-19T01:47:07.522Z,98628.08
2022-11-19T01:48:21.568Z,98631.77
2022-11-19T01:49:23.775Z,98627.23
2022-11-19T01:50:26.197Z,98629.08
2022-11-19T01:51:31.364Z,98629.08
2022-11-19T01:52:33.614Z,98621.05
2022-11-19T01:53:35.885Z,98621.88
2022-11-19T01:55:53.147Z,98621.05
2022-11-19T01:56:58.320Z,98617.50
2022-11-19T01:58:00.467Z,98617.50
2022-11-19T01:59:04.748Z,98621.05
2022-11-19T02:00:08.448Z,98618.38
2022-11-19T02:01:11.454Z,98613.02
2022-11-19T02:02:14.555Z,98612.00
2022-11-19T02:03:16.732Z,98618.23
2022-11-19T02:04:19.135Z,98619.06
2022-11-19T02:05:21.209Z,98615.55
2022-11-19T02:06:23.556Z,98608.34
2022-11-19T02:07:27.595Z,98613.70
2022-11-19T02:09:52.963Z,98611.86
2022-11-19T02:10:58.573Z,98610.19
2022-11-19T02:12:19.349Z,98612.00
2022-11-19T02:13:25.234Z,98610.19
2022-11-19T02:15:04.667Z,98594.95
2022-11-19T02:16:19.604Z,98596.80
2022-11-19T02:18:00.501Z,98588.91
2022-11-19T02:20:46.174Z,98578.30
2022-11-19T02:23:16.027Z,98572.41
2022-11-19T02:24:43.241Z,98577.03
2022-11-19T02:26:10.557Z,98571.82
2022-11-19T02:27:19.277Z,98570.98
2022-11-19T02:30:07.389Z,98567.48
2022-11-19T02:31:31.869Z,98568.45
2022-11-19T02:32:58.383Z,98573.09
2022-11-19T02:34:09.937Z,98571.27
2022-11-19T02:35:15.768Z,98570.41
2022-11-19T02:36:27.863Z,98574.09
2022-11-19T02:37:34.901Z,98571.42
2022-11-19T02:38:43.428Z,98564.36
2022-11-19T02:41:06.376Z,98569.58
2022-11-19T02:42:18.122Z,98567.04
2022-11-19T02:43:23.631Z,98561.69
2022-11-19T02:44:35.021Z,98578.59
2022-11-19T02:47:06.103Z,98578.30
2022-11-19T02:48:17.520Z,98573.95
2022-11-19T02:49:21.413Z,98574.09
2022-11-19T02:50:50.666Z,98572.39
2022-11-19T02:51:53.151Z,98572.39
2022-11-19T02:52:56.792Z,98568.85
2022-11-19T02:54:00.025Z,98575.91
2022-11-19T02:55:02.151Z,98571.53
2022-11-19T02:57:24.370Z,98574.21
2022-11-19T02:58:26.940Z,98576.05
2022-11-19T03:00:48.121Z,98573.38
2022-11-19T03:01:50.169Z,98580.57
2022-11-19T03:02:55.660Z,98571.81
2022-11-19T03:03:57.678Z,98570.98
2022-11-19T03:05:00.594Z,98573.38
2022-11-19T03:06:06.495Z,98573.38
2022-11-19T03:08:23.230Z,98573.23
2022-11-19T03:09:26.707Z,98577.75
2022-11-19T03:11:51.300Z,98574.94
2022-11-19T03:13:00.359Z,98567.04
2022-11-19T03:14:19.419Z,98578.59
2022-11-19T03:15:34.150Z,98571.53
2022-11-19T03:18:16.639Z,98572.26
2022-11-19T03:19:38.743Z,98570.55
2022-11-19T03:20:50.468Z,98567.19
2022-11-19T03:23:23.440Z,98566.33
2022-11-19T03:25:44.844Z,98567.33
2022-11-19T03:26:59.814Z,98563.92
2022-11-19T03:28:06.943Z,98560.41
2022-11-19T03:29:10.628Z,98545.33
2022-11-19T03:30:13.945Z,98557.73
2022-11-19T03:31:17.605Z,98549.70
2022-11-19T03:33:38.466Z,98545.04
2022-11-19T03:34:41.007Z,98547.86
2022-11-19T03:35:49.128Z,98538.99
2022-11-19T03:36:52.159Z,98544.34
2022-11-19T03:37:56.661Z,98535.30
2022-11-19T03:39:01.870Z,98543.34
2022-11-19T03:40:05.200Z,98540.66
2022-11-19T03:41:07.369Z,98546.02
2022-11-19T03:42:10.901Z,98546.88
2022-11-19T03:43:13.178Z,98544.20
2022-11-19T03:44:18.373Z,98532.63
2022-11-19T03:45:24.122Z,98539.68
2022-11-19T03:46:28.290Z,98537.00
2022-11-19T03:47:33.424Z,98530.81
2022-11-19T03:48:35.947Z,98534.33
2022-11-19T03:49:39.939Z,98526.30
2022-11-19T03:50:54.232Z,98536.03
2022-11-19T03:52:05.868Z,98531.66
2022-11-19T03:53:08.224Z,98537.00
2022-11-19T03:54:10.596Z,98533.49
2022-11-19T03:55:12.680Z,98524.59
2022-11-19T03:56:17.773Z,98523.77
2022-11-19T03:57:20.809Z,98527.27
2022-11-19T03:58:24.231Z,98522.78
2022-11-19T03:59:29.697Z,98521.08
2022-11-19T04:00:30.753Z,98522.78
2022-11-19T04:01:33.279Z,98521.08
2022-11-19T04:02:35.447Z,98518.41
2022-11-19T04:03:38.388Z,98521.92
2022-11-19T04:04:40.972Z,98514.75
2022-11-19T04:05:43.066Z,98518.27
2022-11-19T04:06:45.141Z,98518.27
2022-11-19T04:07:47.228Z,98512.91
2022-11-19T04:08:49.220Z,98510.23
2022-11-19T04:09:51.705Z,98514.75
2022-11-19T04:10:54.036Z,98496.84
2022-11-19T04:11:56.680Z,98504.88
2022-11-19T04:12:59.089Z,98509.25
2022-11-19T04:14:01.375Z,98499.52
2022-11-19T04:15:05.853Z,98496.70
2022-11-19T04:16:10.492Z,98491.48
2022-11-19T04:17:13.139Z,98489.67
2022-11-19T04:18:15.254Z,98485.98
2022-11-19T04:19:17.889Z,98481.64
2022-11-19T04:20:20.979Z,98475.42
2022-11-19T04:21:23.117Z,98486.13
2022-11-19T04:22:25.671Z,98476.28
2022-11-19T04:23:27.755Z,98482.47
2022-11-19T04:24:29.752Z,98484.17
2022-11-19T04:25:32.963Z,98478.09
2022-11-19T04:26:35.138Z,98475.27
2022-11-19T04:27:37.238Z,98473.46
2022-11-19T04:28:39.466Z,98476.14
2022-11-19T04:29:41.545Z,98469.92
2022-11-19T04:30:44.644Z,98461.88
2022-11-19T04:31:46.825Z,98464.70
2022-11-19T04:32:48.900Z,98451.32
2022-11-19T04:33:51.180Z,98456.67
2022-11-19T04:34:53.263Z,98449.51
2022-11-19T04:35:55.612Z,98454.00
2022-11-19T04:36:58.044Z,98453.16
2022-11-19T04:38:00.060Z,98451.32
2022-11-19T04:39:02.454Z,98450.48
2022-11-19T04:40:06.403Z,98447.81
2022-11-19T04:41:08.547Z,98450.48
2022-11-19T04:42:10.647Z,98445.13
2022-11-19T04:43:13.824Z,98439.77
2022-11-19T04:44:15.968Z,98437.09
2022-11-19T04:45:19.711Z,98441.59
2022-11-19T04:46:22.876Z,98436.23
2022-11-19T04:47:25.121Z,98442.45
2022-11-19T04:48:27.119Z,98441.59
2022-11-19T04:49:29.311Z,98448.79
2022-11-19T04:50:31.660Z,98461.34
2022-11-19T04:51:34.017Z,98472.89
2022-11-19T04:52:40.809Z,98479.94
2022-11-19T04:53:40.684Z,98482.62
2022-11-19T04:54:42.785Z,98479.08
2022-11-19T04:55:44.836Z,98479.08
2022-11-19T04:56:46.999Z,98479.94
2022-11-19T04:57:49.047Z,98479.94
2022-11-19T04:58:51.126Z,98486.13
2022-11-19T04:59:53.092Z,98480.77
2022-11-19T05:00:55.700Z,98475.42
2022-11-19T05:01:57.868Z,98469.23
2022-11-19T05:03:01.271Z,98469.23
2022-11-19T05:04:03.656Z,98473.72
2022-11-19T05:05:07.028Z,98477.27
2022-11-19T05:06:10.506Z,98482.62
2022-11-19T05:07:12.584Z,98478.09
2022-11-19T05:08:15.586Z,98482.62
2022-11-19T05:09:18.382Z,98483.59
2022-11-19T05:10:20.889Z,98487.11
2022-11-19T05:11:23.457Z,98487.11
2022-11-19T05:12:25.407Z,98489.78
2022-11-19T05:13:28.436Z,98482.62
2022-11-19T05:14:31.440Z,98487.11
2022-11-19T05:15:34.079Z,98481.75
2022-11-19T05:16:37.267Z,98487.11
2022-11-19T05:17:39.360Z,98482.62
2022-11-19T05:18:41.455Z,98494.30
2022-11-19T05:19:44.508Z,98485.44
2022-11-19T05:20:48.146Z,98491.63
2022-11-19T05:21:50.932Z,98489.78
2022-11-19T05:22:53.563Z,98480.92
2022-11-19T05:23:56.198Z,98480.92
2022-11-19T05:24:58.830Z,98485.44
2022-11-19T05:26:01.281Z,98481.75
2022-11-19T05:27:03.619Z,98479.08
2022-11-19T05:28:06.110Z,98487.97
2022-11-19T05:29:08.268Z,98487.11
2022-11-19T05:30:11.855Z,98488.95
2022-11-19T05:31:14.010Z,98488.95
2022-11-19T05:32:16.092Z,98486.27
2022-11-19T05:33:18.166Z,98486.27
2022-11-19T05:34:20.249Z,98483.59
2022-11-19T05:35:23.721Z,98489.78
2022-11-19T05:36:26.232Z,98488.95
2022-11-19T05:37:29.246Z,98488.95
2022-11-19T05:38:31.704Z,98482.77
2022-11-19T05:39:34.747Z,98483.59
2022-11-19T05:40:37.403Z,98488.95
2022-11-19T05:41:40.228Z,98488.95
2022-11-19T05:42:42.305Z,98488.95
2022-11-19T05:43:45.402Z,98500.50
2022-11-19T05:44:47.571Z,98495.14
2022-11-19T05:45:49.635Z,98488.95
2022-11-19T05:46:52.476Z,98493.33
2022-11-19T05:47:55.748Z,98486.13
2022-11-19T05:48:58.364Z,98487.97
2022-11-19T05:50:01.496Z,98491.63
2022-11-19T05:51:03.927Z,98495.14
2022-11-19T05:52:06.047Z,98500.50
2022-11-19T05:53:08.976Z,98506.86
2022-11-19T05:54:11.764Z,98502.34
2022-11-19T05:55:14.330Z,98492.47
2022-11-19T05:56:17.535Z,98492.47
2022-11-19T05:57:19.612Z,98500.50
2022-11-19T05:58:22.372Z,98501.51
2022-11-19T05:59:24.341Z,98490.80
2022-11-19T06:00:26.440Z,98493.47
2022-11-19T06:01:30.224Z,98499.66
2022-11-19T06:02:33.266Z,98503.17
2022-11-19T06:03:35.485Z,98502.34
2022-11-19T06:04:38.552Z,98507.70
2022-11-19T06:05:40.952Z,98506.86
2022-11-19T06:06:45.422Z,98503.31
2022-11-19T06:07:47.591Z,98502.34
2022-11-19T06:08:50.709Z,98506.86
2022-11-19T06:09:53.186Z,98511.20
2022-11-19T06:10:55.373Z,98515.73
2022-11-19T06:11:57.681Z,98518.27
2022-11-19T06:12:59.778Z,98511.20
2022-11-19T06:14:02.008Z,98515.59
2022-11-19T06:15:06.944Z,98520.94
2022-11-19T06:16:09.299Z,98518.12
2022-11-19T06:17:12.199Z,98521.66
2022-11-19T06:18:14.340Z,98516.30
2022-11-19T06:19:17.637Z,98521.66
2022-11-19T06:20:20.661Z,98521.66
2022-11-19T06:21:22.872Z,98524.34
2022-11-19T06:22:25.703Z,98517.97
2022-11-19T06:23:29.753Z,98526.01
2022-11-19T06:24:31.905Z,98514.46
2022-11-19T06:25:35.097Z,98517.97
2022-11-19T06:26:37.759Z,98521.52
2022-11-19T06:27:39.728Z,98520.65
2022-11-19T06:28:42.034Z,98526.01
2022-11-19T06:29:45.203Z,98532.92
2022-11-19T06:30:48.461Z,98524.20
2022-11-19T06:31:50.571Z,98530.38
2022-11-19T06:32:52.859Z,98535.73
2022-11-19T06:33:55.434Z,98528.57
2022-11-19T06:34:57.842Z,98529.55
2022-11-19T06:36:00.452Z,98529.55
2022-11-19T06:37:02.783Z,98525.89
2022-11-19T06:38:04.910Z,98528.57
2022-11-19T06:39:08.111Z,98527.56
2022-11-19T06:40:14.204Z,98529.41
2022-11-19T06:41:16.702Z,98532.08
2022-11-19T06:42:20.160Z,98532.08
2022-11-19T06:43:23.977Z,98533.93
2022-11-19T06:44:27.051Z,98536.61
2022-11-19T06:45:29.214Z,98540.12
2022-11-19T06:46:31.321Z,98547.31
2022-11-19T06:47:46.534Z,98539.28
2022-11-19T06:48:48.643Z,98548.98
2022-11-19T06:49:51.647Z,98547.31
2022-11-19T06:50:53.784Z,98548.98
2022-11-19T06:51:56.144Z,98548.16
2022-11-19T06:52:58.733Z,98547.17
2022-11-19T06:54:01.392Z,98549.85
2022-11-19T06:55:04.177Z,98549.85
2022-11-19T06:56:07.771Z,98551.66
2022-11-19T06:57:10.399Z,98548.98
2022-11-19T06:58:12.442Z,98546.30
2022-11-19T06:59:14.953Z,98548.98
2022-11-19T07:00:17.862Z,98550.69
2022-11-19T07:01:20.078Z,98550.69
2022-11-19T07:02:23.450Z,98546.30
2022-11-19T07:03:25.579Z,98548.01
2022-11-19T07:04:27.675Z,98552.53
2022-11-19T07:05:30.110Z,98553.36
2022-11-19T07:06:32.337Z,98550.69
2022-11-19T07:07:34.386Z,98548.01
2022-11-19T07:08:37.920Z,98550.55
2022-11-19T07:09:40.055Z,98555.06
2022-11-19T07:10:43.475Z,98554.20
2022-11-19T07:11:46.148Z,98558.58
2022-11-19T07:12:48.564Z,98553.22
2022-11-19T07:13:51.999Z,98554.92
2022-11-19T07:14:58.505Z,98560.27
2022-11-19T07:16:01.846Z,98556.62
2022-11-19T07:17:04.834Z,98565.48
2022-11-19T07:18:06.957Z,98568.16
2022-11-19T07:19:09.377Z,98566.47
2022-11-19T07:20:13.884Z,98567.33
2022-11-19T07:21:16.503Z,98569.14
2022-11-19T07:22:18.772Z,98567.33
2022-11-19T07:23:20.756Z,98573.52
2022-11-19T07:24:23.594Z,98570.02
2022-11-19T07:25:26.870Z,98567.33
2022-11-19T07:26:31.294Z,98567.33
2022-11-19T07:27:34.296Z,98561.98
2022-11-19T07:28:36.879Z,98570.02
2022-11-19T07:29:39.287Z,98574.36
2022-11-19T07:30:41.502Z,98570.70
2022-11-19T07:31:43.640Z,98577.91
2022-11-19T07:32:45.745Z,98581.41
2022-11-19T07:33:47.806Z,98579.57
2022-11-19T07:34:49.809Z,98583.26
2022-11-19T07:35:51.878Z,98584.92
2022-11-19T07:36:54.304Z,98584.92
2022-11-19T07:37:56.852Z,98581.41
2022-11-19T07:38:58.929Z,98584.92
2022-11-19T07:40:01.486Z,98586.77
2022-11-19T07:41:04.218Z,98580.58
2022-11-19T07:42:07.718Z,98583.26
2022-11-19T07:43:10.536Z,98588.61
2022-11-19T07:44:13.263Z,98584.09
2022-11-19T07:46:30.898Z,98583.12
2022-11-19T07:47:34.609Z,98580.58
2022-11-19T07:48:36.770Z,98589.59
2022-11-19T07:49:39.865Z,98592.13
2022-11-19T07:50:42.281Z,98589.59
2022-11-19T07:51:44.454Z,98591.30
2022-11-19T07:52:47.986Z,98591.30
2022-11-19T07:53:51.666Z,98598.46
2022-11-19T07:54:53.884Z,98598.46
2022-11-19T07:56:00.611Z,98594.11
2022-11-19T07:57:02.904Z,98601.14
2022-11-19T07:58:06.029Z,98595.78
2022-11-19T07:59:08.179Z,98601.14
2022-11-19T08:00:12.195Z,98601.14
2022-11-19T08:01:21.488Z,98601.14
2022-11-19T08:02:23.652Z,98599.47
2022-11-19T08:03:26.298Z,98607.36
2022-11-19T08:04:28.877Z,98605.66
2022-11-19T08:05:30.974Z,98602.98
2022-11-19T08:06:33.493Z,98605.66
2022-11-19T08:07:38.571Z,98606.50
2022-11-19T08:08:42.044Z,98609.31
2022-11-19T08:09:44.109Z,98602.98
2022-11-19T08:10:46.271Z,98604.83
2022-11-19T08:11:48.944Z,98615.54
2022-11-19T08:12:50.915Z,98615.54
2022-11-19T08:13:53.107Z,98621.04
2022-11-19T08:14:55.768Z,98610.33
2022-11-19T08:16:02.094Z,98613.84
2022-11-19T08:17:05.340Z,98628.20
2022-11-19T08:18:09.256Z,98624.55
2022-11-19T08:19:13.463Z,98619.34
2022-11-19T08:20:16.879Z,98621.87
2022-11-19T08:21:19.046Z,98630.88
2022-11-19T08:22:21.056Z,98623.72
2022-11-19T08:23:23.503Z,98627.38
2022-11-19T08:24:26.616Z,98633.56
2022-11-19T08:25:29.472Z,98629.07
2022-11-19T08:26:32.745Z,98630.74
2022-11-19T08:27:34.900Z,98634.43
2022-11-19T08:28:38.716Z,98637.94
2022-11-19T08:29:41.658Z,98635.27
2022-11-19T08:30:43.876Z,98639.78
2022-11-19T08:31:46.654Z,98647.67
2022-11-19T08:32:49.144Z,98650.36
2022-11-19T08:33:51.316Z,98642.47
2022-11-19T08:34:53.333Z,98645.98
2022-11-19T08:35:55.344Z,98642.32
2022-11-19T08:36:57.545Z,98643.30
2022-11-19T08:38:00.051Z,98645.00
2022-11-19T08:39:02.756Z,98638.77
2022-11-19T08:40:07.323Z,98644.13
2022-11-19T08:41:09.874Z,98645.98
2022-11-19T08:42:12.473Z,98647.67
2022-11-19T08:43:15.217Z,98645.14
2022-11-19T08:44:18.571Z,98655.85
2022-11-19T08:45:21.201Z,98655.85
2022-11-19T08:46:24.170Z,98654.98
2022-11-19T08:47:27.330Z,98667.41
2022-11-19T08:48:30.250Z,98665.70
2022-11-19T08:49:32.708Z,98665.70
2022-11-19T08:50:35.792Z,98668.38
2022-11-19T08:51:38.612Z,98665.70
2022-11-19T08:52:40.945Z,98669.36
2022-11-19T08:53:43.035Z,98665.70
2022-11-19T08:54:46.154Z,98670.22
2022-11-19T08:55:51.209Z,98670.08
2022-11-19T08:56:53.353Z,98676.41
2022-11-19T08:58:04.095Z,98678.11
2022-11-19T08:59:07.295Z,98679.95
2022-11-19T09:00:12.698Z,98685.31
2022-11-19T09:01:16.837Z,98686.15
2022-11-19T09:02:19.981Z,98690.67
2022-11-19T09:03:22.481Z,98688.83
2022-11-19T09:04:24.977Z,98692.34
2022-11-19T09:05:27.079Z,98693.34
2022-11-19T09:06:30.347Z,98692.48
2022-11-19T09:07:33.058Z,98697.00
2022-11-19T09:08:35.654Z,98692.48
2022-11-19T09:09:37.752Z,98696.03
2022-11-19T09:10:39.906Z,98702.22
2022-11-19T09:11:43.111Z,98699.54
2022-11-19T09:12:45.637Z,98696.86
2022-11-19T09:13:48.402Z,98704.06
2022-11-19T09:14:51.505Z,98704.06
2022-11-19T09:15:53.621Z,98704.06
2022-11-19T09:16:55.696Z,98708.55
2022-11-19T09:17:58.078Z,98705.73
2022-11-19T09:19:00.505Z,98703.05
2022-11-19T09:20:03.314Z,98709.27
2022-11-19T09:21:06.350Z,98717.17
2022-11-19T09:22:08.519Z,98708.27
2022-11-19T09:23:10.723Z,98713.63
2022-11-19T09:24:13.143Z,98714.63
2022-11-19T09:25:15.832Z,98714.63
2022-11-19T09:26:18.292Z,98721.66
2022-11-19T09:27:21.347Z,98722.67
2022-11-19T09:28:23.739Z,98713.63
2022-11-19T09:29:25.845Z,98726.18
2022-11-19T09:30:28.044Z,98734.08
2022-11-19T09:31:30.571Z,98738.59
2022-11-19T09:32:33.642Z,98732.38
2022-11-19T09:33:37.274Z,98731.40
2022-11-19T09:34:39.844Z,98743.09
2022-11-19T09:35:42.859Z,98744.79
2022-11-19T09:36:44.998Z,98743.95
2022-11-19T09:37:47.563Z,98742.25
2022-11-19T09:38:49.647Z,98740.41
2022-11-19T09:39:52.167Z,98745.77
2022-11-19T09:40:55.837Z,98739.57
2022-11-19T09:42:01.702Z,98743.09
2022-11-19T09:43:15.176Z,98746.63
2022-11-19T09:44:28.950Z,98748.44
2022-11-19T09:45:58.875Z,98751.13
2022-11-19T09:47:24.739Z,98743.23
2022-11-19T09:48:37.132Z,98740.55
2022-11-19T09:49:49.097Z,98751.41
2022-11-19T09:50:54.476Z,98752.38
2022-11-19T09:52:00.919Z,98748.86
2022-11-19T09:53:12.961Z,98753.38
2022-11-19T09:54:18.050Z,98753.52
2022-11-19T09:55:26.871Z,98754.36
2022-11-19T09:57:53.852Z,98755.22
2022-11-19T09:58:56.797Z,98758.87
2022-11-19T10:00:00.501Z,98759.85
2022-11-19T10:01:03.176Z,98765.20
2022-11-19T10:03:33.681Z,98779.19
2022-11-19T10:04:35.763Z,98779.30
2022-11-19T10:06:08.300Z,98777.62
2022-11-19T10:07:43.866Z,98784.52
2022-11-19T10:09:07.047Z,98775.64
2022-11-19T10:10:30.861Z,98779.16
2022-11-19T10:12:03.950Z,98785.52
2022-11-19T10:13:26.092Z,98784.79
2022-11-19T10:14:44.245Z,98784.79
2022-11-19T10:16:06.179Z,98784.09
2022-11-19T10:17:43.138Z,98780.69
2022-11-19T10:18:58.510Z,98778.28
2022-11-19T10:20:20.155Z,98777.45
2022-11-19T10:21:44.468Z,98778.42
2022-11-19T10:22:58.409Z,98781.23
2022-11-19T10:24:14.828Z,98777.69
2022-11-19T10:25:25.876Z,98790.24
2022-11-19T10:26:34.037Z,98794.76
2022-11-19T10:27:40.302Z,98793.05
2022-11-19T10:30:07.752Z,98798.31
2022-11-19T10:32:46.477Z,98804.64
2022-11-19T10:33:52.004Z,98800.11
2022-11-19T10:34:57.061Z,98801.92
2022-11-19T10:36:10.130Z,98803.63
2022-11-19T10:37:16.231Z,98801.79
2022-11-19T10:38:27.817Z,98809.72
2022-11-19T10:41:17.860Z,98800.48
2022-11-19T10:42:34.800Z,98809.44
2022-11-19T10:43:40.075Z,98801.41
2022-11-19T10:45:03.323Z,98809.44
2022-11-19T10:46:06.763Z,98805.89
2022-11-19T10:48:44.858Z,98809.48
2022-11-19T10:49:52.232Z,98819.28
2022-11-19T10:50:55.322Z,98829.16
2022-11-19T10:51:58.448Z,98826.48
2022-11-19T10:53:32.001Z,98823.80
2022-11-19T10:54:34.833Z,98823.80
2022-11-19T10:55:40.952Z,98827.18
2022-11-19T10:56:44.509Z,98833.41
2022-11-19T10:57:46.681Z,98838.77
2022-11-19T10:58:52.621Z,98844.12
2022-11-19T10:59:54.799Z,98830.73
2022-11-19T11:00:58.507Z,98830.73
2022-11-19T11:02:07.331Z,98836.92
2022-11-19T11:04:37.814Z,98850.08
2022-11-19T11:07:12.354Z,98851.92
2022-11-19T11:08:16.099Z,98867.11
2022-11-19T11:09:37.594Z,98863.70
2022-11-19T11:10:41.403Z,98864.56
2022-11-19T11:11:43.813Z,98869.78
2022-11-19T11:12:45.898Z,98876.81
2022-11-19T11:13:48.941Z,98878.66
2022-11-19T11:14:51.662Z,98884.98
2022-11-19T11:15:54.344Z,98885.86
2022-11-19T11:16:56.568Z,98897.41
2022-11-19T11:18:05.952Z,98900.92
2022-11-19T11:19:12.232Z,98906.27
2022-11-19T11:20:21.072Z,98908.12
2022-11-19T11:21:35.165Z,98914.31
2022-11-19T11:22:37.419Z,98920.53
2022-11-19T11:23:53.078Z,98921.38
2022-11-19T11:24:56.649Z,98935.63
2022-11-19T11:26:07.878Z,98934.77
2022-11-19T11:28:31.530Z,98936.53
2022-11-19T11:29:34.490Z,98937.30
2022-11-19T11:30:36.975Z,98933.79
2022-11-19T11:31:44.846Z,98941.69
2022-11-19T11:32:46.995Z,98934.49
2022-11-19T11:33:55.714Z,98938.88
2022-11-19T11:35:00.297Z,98936.20
2022-11-19T11:36:10.961Z,98937.06
2022-11-19T11:37:13.132Z,98949.59
2022-11-19T11:38:15.563Z,98951.30
2022-11-19T11:39:28.813Z,98943.27
2022-11-19T11:40:32.310Z,98952.00
2022-11-19T11:42:42.796Z,98960.91
2022-11-19T11:44:00.757Z,98974.30
2022-11-19T11:45:03.854Z,98957.22
2022-11-19T11:46:09.112Z,98952.87
2022-11-19T11:47:14.038Z,98951.03
2022-11-19T11:48:19.053Z,98957.36
2022-11-19T11:49:30.222Z,98968.07
2022-11-19T11:50:32.467Z,98961.88
2022-11-19T11:51:36.575Z,98967.23
2022-11-19T11:52:41.945Z,98970.88
2022-11-19T11:53:44.121Z,98981.47
2022-11-19T11:56:09.772Z,98970.81
2022-11-19T11:57:15.400Z,98977.11
2022-11-19T11:59:39.623Z,98997.60
2022-11-19T12:00:45.760Z,99001.22
2022-11-19T12:02:05.641Z,99017.28
2022-11-19T12:03:11.142Z,99017.28
2022-11-19T12:04:14.019Z,99030.67
2022-11-19T12:05:16.558Z,99037.58
2022-11-19T12:06:20.118Z,99035.91
2022-11-19T12:09:09.709Z,99030.41
2022-11-19T12:10:35.265Z,99035.83
2022-11-19T12:11:56.417Z,99043.25
2022-11-19T12:13:36.292Z,99048.27
2022-11-19T12:16:32.230Z,99050.69
2022-11-19T12:17:53.461Z,99046.47
2022-11-19T12:19:26.307Z,99047.83
2022-11-19T12:20:36.068Z,99063.05
2022-11-19T12:22:04.713Z,99057.08
2022-11-19T12:23:14.067Z,99068.17
2022-11-19T12:24:33.350Z,99072.33
2022-11-19T12:25:39.242Z,99089.23
2022-11-19T12:26:45.260Z,99086.20
2022-11-19T12:28:00.211Z,99089.74
2022-11-19T12:29:27.435Z,99091.42
2022-11-19T12:30:49.356Z,99108.09
2022-11-19T12:31:56.328Z,99092.04
2022-11-19T12:33:02.219Z,99093.75
2022-11-19T12:34:13.794Z,99099.94
2022-11-19T12:37:05.743Z,99129.48
2022-11-19T12:38:26.477Z,99109.18
2022-11-19T12:39:54.707Z,99105.05
2022-11-19T12:43:04.600Z,99110.24
2022-11-19T12:44:37.857Z,99120.30
2022-11-19T12:45:54.790Z,99131.13
2022-11-19T12:48:22.895Z,99139.91
2022-11-19T12:49:28.714Z,99163.95
2022-11-19T12:50:35.405Z,99164.67
2022-11-19T12:51:44.191Z,99174.28
2022-11-19T12:53:11.666Z,99162.61
2022-11-19T12:54:30.319Z,99170.45
2022-11-19T12:55:46.235Z,99159.01
2022-11-19T12:57:04.607Z,99191.95
2022-11-19T12:58:14.129Z,99186.61
2022-11-19T13:01:04.544Z,99194.06
2022-11-19T13:02:17.111Z,99205.28
2022-11-19T13:03:27.925Z,99197.86
2022-11-19T13:06:02.828Z,99204.20
2022-11-19T13:07:12.742Z,99197.22
2022-11-19T13:08:27.343Z,99201.72
2022-11-19T13:09:49.732Z,99200.64
2022-11-19T13:11:20.806Z,99210.14
2022-11-19T13:12:26.895Z,99219.72
2022-11-19T13:13:29.980Z,99224.22
2022-11-19T13:14:38.949Z,99221.67
2022-11-19T13:16:00.762Z,99231.28
2022-11-19T13:17:04.319Z,99220.47
2022-11-19T13:18:09.392Z,99225.70
2022-11-19T13:20:49.493Z,99244.33
2022-11-19T13:22:03.406Z,99257.66
2022-11-19T13:23:06.033Z,99253.50
2022-11-19T13:24:15.341Z,99254.93
2022-11-19T13:25:23.675Z,99256.84
2022-11-19T13:26:28.723Z,99274.70
2022-11-19T13:27:31.314Z,99273.87
2022-11-19T13:28:37.146Z,99255.16
2022-11-19T13:29:42.552Z,99258.91
2022-11-19T13:30:59.218Z,99242.12
2022-11-19T13:32:10.557Z,99257.08
2022-11-19T13:33:25.200Z,99256.00
2022-11-19T13:34:48.215Z,99263.06
2022-11-19T13:37:45.995Z,99270.37
2022-11-19T13:38:51.806Z,99278.34
2022-11-19T13:39:57.540Z,99273.23
2022-11-19T13:41:15.967Z,99275.05
2022-11-19T13:42:18.782Z,99295.67
2022-11-19T13:43:36.986Z,99285.10
2022-11-19T13:44:25.603Z,99291.32
2022-11-19T13:45:28.555Z,99292.89